sensor_id;sensor_type;location;lat;lon;timestamp;P1;durP1;ratioP1;P2;durP2;ratioP2
3006;SDS011;1513;47.650;10.720;2023-07-31T00:01:14;3.30;;;2.80;;
3006;SDS011;1513;47.650;10.720;2023-07-31T00:03:40;3.47;;;2.60;;
3006;SDS011;1513;47.650;10.720;2023-07-31T00:06:07;7.67;;;3.90;;
3006;SDS011;1513;47.650;10.720;2023-07-31T00:08:33;3.20;;;2.80;;
3006;SDS011;1513;47.650;10.720;2023-07-31T00:10:59;4.20;;;2.73;;
3006;SDS011;1513;47.650;10.720;2023-07-31T00:13:25;4.57;;;2.80;;
3006;SDS011;1513;47.650;10.720;2023-07-31T00:15:52;4.00;;;2.90;;
3006;SDS011;1513;47.650;10.720;2023-07-31T00:18:18;3.00;;;2.70;;
3006;SDS011;1513;47.650;10.720;2023-07-31T00:20:44;6.43;;;2.90;;
3006;SDS011;1513;47.650;10.720;2023-07-31T00:23:11;4.17;;;2.87;;
3006;SDS011;1513;47.650;10.720;2023-07-31T00:25:37;4.93;;;3.03;;
3006;SDS011;1513;47.650;10.720;2023-07-31T00:28:03;2.90;;;2.60;;
3006;SDS011;1513;47.650;10.720;2023-07-31T00:30:30;7.33;;;2.50;;
3006;SDS011;1513;47.650;10.720;2023-07-31T00:32:56;4.97;;;2.80;;
3006;SDS011;1513;47.650;10.720;2023-07-31T00:35:23;5.40;;;3.27;;
3006;SDS011;1513;47.650;10.720;2023-07-31T00:37:49;4.53;;;2.60;;
3006;SDS011;1513;47.650;10.720;2023-07-31T00:40:15;4.13;;;2.73;;
3006;SDS011;1513;47.650;10.720;2023-07-31T00:42:42;3.10;;;2.80;;
3006;SDS011;1513;47.650;10.720;2023-07-31T00:45:08;4.77;;;2.80;;
3006;SDS011;1513;47.650;10.720;2023-07-31T00:47:35;5.00;;;2.73;;
3006;SDS011;1513;47.650;10.720;2023-07-31T00:50:01;3.60;;;2.87;;
3006;SDS011;1513;47.650;10.720;2023-07-31T00:52:27;5.73;;;3.10;;
3006;SDS011;1513;47.650;10.720;2023-07-31T00:54:55;8.13;;;3.07;;
3006;SDS011;1513;47.650;10.720;2023-07-31T00:57:21;7.90;;;2.80;;
3006;SDS011;1513;47.650;10.720;2023-07-31T00:59:50;4.30;;;2.97;;
3006;SDS011;1513;47.650;10.720;2023-07-31T01:02:16;4.47;;;2.63;;
3006;SDS011;1513;47.650;10.720;2023-07-31T01:04:43;6.67;;;3.10;;
3006;SDS011;1513;47.650;10.720;2023-07-31T01:07:25;3.20;;;2.87;;
3006;SDS011;1513;47.650;10.720;2023-07-31T01:10:26;4.57;;;3.13;;
3006;SDS011;1513;47.650;10.720;2023-07-31T01:12:56;7.73;;;3.50;;
3006;SDS011;1513;47.650;10.720;2023-07-31T01:15:23;5.20;;;3.17;;
3006;SDS011;1513;47.650;10.720;2023-07-31T01:17:49;8.10;;;3.47;;
3006;SDS011;1513;47.650;10.720;2023-07-31T01:20:21;6.40;;;3.80;;
3006;SDS011;1513;47.650;10.720;2023-07-31T01:25:26;6.93;;;4.30;;
3006;SDS011;1513;47.650;10.720;2023-07-31T01:31:12;7.00;;;4.50;;
3006;SDS011;1513;47.650;10.720;2023-07-31T01:33:44;4.73;;;3.87;;
3006;SDS011;1513;47.650;10.720;2023-07-31T01:36:11;4.90;;;3.77;;
3006;SDS011;1513;47.650;10.720;2023-07-31T01:38:38;9.37;;;4.10;;
3006;SDS011;1513;47.650;10.720;2023-07-31T01:41:05;6.67;;;3.60;;
3006;SDS011;1513;47.650;10.720;2023-07-31T01:43:31;7.00;;;4.60;;
3006;SDS011;1513;47.650;10.720;2023-07-31T01:45:57;7.10;;;4.47;;
3006;SDS011;1513;47.650;10.720;2023-07-31T01:48:23;6.73;;;3.47;;
3006;SDS011;1513;47.650;10.720;2023-07-31T01:50:50;10.27;;;3.83;;
3006;SDS011;1513;47.650;10.720;2023-07-31T01:53:16;7.17;;;3.77;;
3006;SDS011;1513;47.650;10.720;2023-07-31T01:55:42;5.93;;;3.50;;
3006;SDS011;1513;47.650;10.720;2023-07-31T01:58:09;12.17;;;4.53;;
3006;SDS011;1513;47.650;10.720;2023-07-31T02:00:35;9.50;;;3.60;;
3006;SDS011;1513;47.650;10.720;2023-07-31T02:03:02;3.60;;;2.87;;
3006;SDS011;1513;47.650;10.720;2023-07-31T02:05:28;6.33;;;3.90;;
3006;SDS011;1513;47.650;10.720;2023-07-31T02:07:54;3.83;;;2.93;;
3006;SDS011;1513;47.650;10.720;2023-07-31T02:10:26;4.73;;;3.30;;
3006;SDS011;1513;47.650;10.720;2023-07-31T02:12:52;4.33;;;3.10;;
3006;SDS011;1513;47.650;10.720;2023-07-31T02:15:18;4.50;;;2.83;;
3006;SDS011;1513;47.650;10.720;2023-07-31T02:17:46;5.00;;;3.20;;
3006;SDS011;1513;47.650;10.720;2023-07-31T02:20:12;5.80;;;3.33;;
3006;SDS011;1513;47.650;10.720;2023-07-31T02:22:39;5.40;;;3.17;;
3006;SDS011;1513;47.650;10.720;2023-07-31T02:25:05;5.20;;;3.60;;
3006;SDS011;1513;47.650;10.720;2023-07-31T02:27:32;5.73;;;3.00;;
3006;SDS011;1513;47.650;10.720;2023-07-31T02:29:58;4.03;;;2.90;;
3006;SDS011;1513;47.650;10.720;2023-07-31T02:32:24;4.97;;;2.73;;
3006;SDS011;1513;47.650;10.720;2023-07-31T02:34:51;5.70;;;3.40;;
3006;SDS011;1513;47.650;10.720;2023-07-31T02:37:17;4.77;;;3.13;;
3006;SDS011;1513;47.650;10.720;2023-07-31T02:39:43;4.33;;;3.33;;
3006;SDS011;1513;47.650;10.720;2023-07-31T02:42:10;5.10;;;3.27;;
3006;SDS011;1513;47.650;10.720;2023-07-31T02:44:36;5.47;;;2.80;;
3006;SDS011;1513;47.650;10.720;2023-07-31T02:47:02;4.53;;;3.43;;
3006;SDS011;1513;47.650;10.720;2023-07-31T02:49:29;4.10;;;3.13;;
3006;SDS011;1513;47.650;10.720;2023-07-31T02:51:55;5.87;;;3.27;;
3006;SDS011;1513;47.650;10.720;2023-07-31T02:54:21;4.13;;;3.07;;
3006;SDS011;1513;47.650;10.720;2023-07-31T02:56:48;7.13;;;3.90;;
3006;SDS011;1513;47.650;10.720;2023-07-31T02:59:14;4.50;;;3.40;;
3006;SDS011;1513;47.650;10.720;2023-07-31T03:01:42;6.03;;;3.20;;
3006;SDS011;1513;47.650;10.720;2023-07-31T03:04:08;5.10;;;3.37;;
3006;SDS011;1513;47.650;10.720;2023-07-31T03:06:35;3.73;;;2.97;;
3006;SDS011;1513;47.650;10.720;2023-07-31T03:09:01;5.20;;;3.50;;
3006;SDS011;1513;47.650;10.720;2023-07-31T03:11:27;5.60;;;3.20;;
3006;SDS011;1513;47.650;10.720;2023-07-31T03:13:55;6.23;;;3.20;;
3006;SDS011;1513;47.650;10.720;2023-07-31T03:16:21;5.33;;;3.23;;
3006;SDS011;1513;47.650;10.720;2023-07-31T03:18:47;7.27;;;3.83;;
3006;SDS011;1513;47.650;10.720;2023-07-31T03:21:14;4.80;;;3.73;;
3006;SDS011;1513;47.650;10.720;2023-07-31T03:23:40;5.53;;;3.50;;
3006;SDS011;1513;47.650;10.720;2023-07-31T03:26:08;5.37;;;4.10;;
3006;SDS011;1513;47.650;10.720;2023-07-31T03:28:35;6.23;;;3.57;;
3006;SDS011;1513;47.650;10.720;2023-07-31T03:31:03;4.83;;;4.00;;
3006;SDS011;1513;47.650;10.720;2023-07-31T03:33:29;7.57;;;4.07;;
3006;SDS011;1513;47.650;10.720;2023-07-31T03:35:56;6.93;;;4.13;;
3006;SDS011;1513;47.650;10.720;2023-07-31T03:38:22;6.70;;;4.33;;
3006;SDS011;1513;47.650;10.720;2023-07-31T03:40:49;4.83;;;3.43;;
3006;SDS011;1513;47.650;10.720;2023-07-31T03:43:15;6.73;;;3.70;;
3006;SDS011;1513;47.650;10.720;2023-07-31T03:45:41;3.93;;;3.27;;
3006;SDS011;1513;47.650;10.720;2023-07-31T03:48:08;4.53;;;3.57;;
3006;SDS011;1513;47.650;10.720;2023-07-31T03:50:34;6.23;;;3.23;;
3006;SDS011;1513;47.650;10.720;2023-07-31T03:53:00;3.03;;;2.70;;
3006;SDS011;1513;47.650;10.720;2023-07-31T03:55:27;5.67;;;3.47;;
3006;SDS011;1513;47.650;10.720;2023-07-31T03:57:53;4.93;;;3.50;;
3006;SDS011;1513;47.650;10.720;2023-07-31T04:00:19;3.90;;;3.50;;
3006;SDS011;1513;47.650;10.720;2023-07-31T04:02:47;5.70;;;3.80;;
3006;SDS011;1513;47.650;10.720;2023-07-31T04:05:13;4.27;;;3.30;;
3006;SDS011;1513;47.650;10.720;2023-07-31T04:07:40;5.40;;;3.27;;
3006;SDS011;1513;47.650;10.720;2023-07-31T04:10:06;7.03;;;3.70;;
3006;SDS011;1513;47.650;10.720;2023-07-31T04:12:32;6.07;;;4.27;;
3006;SDS011;1513;47.650;10.720;2023-07-31T04:14:59;7.20;;;3.83;;
3006;SDS011;1513;47.650;10.720;2023-07-31T04:17:25;6.53;;;4.57;;
3006;SDS011;1513;47.650;10.720;2023-07-31T04:19:51;7.50;;;4.20;;
3006;SDS011;1513;47.650;10.720;2023-07-31T04:22:17;4.57;;;3.53;;
3006;SDS011;1513;47.650;10.720;2023-07-31T04:24:44;5.77;;;4.30;;
3006;SDS011;1513;47.650;10.720;2023-07-31T04:27:10;4.03;;;3.40;;
3006;SDS011;1513;47.650;10.720;2023-07-31T04:29:36;7.60;;;3.90;;
3006;SDS011;1513;47.650;10.720;2023-07-31T04:32:05;5.97;;;4.20;;
3006;SDS011;1513;47.650;10.720;2023-07-31T04:34:31;6.90;;;4.33;;
3006;SDS011;1513;47.650;10.720;2023-07-31T04:36:58;7.53;;;3.60;;
3006;SDS011;1513;47.650;10.720;2023-07-31T04:39:24;5.40;;;3.53;;
3006;SDS011;1513;47.650;10.720;2023-07-31T04:41:50;12.00;;;5.57;;
3006;SDS011;1513;47.650;10.720;2023-07-31T04:44:16;4.10;;;3.50;;
3006;SDS011;1513;47.650;10.720;2023-07-31T04:46:43;7.77;;;4.10;;
3006;SDS011;1513;47.650;10.720;2023-07-31T04:49:09;4.03;;;3.10;;
3006;SDS011;1513;47.650;10.720;2023-07-31T04:51:35;4.53;;;3.60;;
3006;SDS011;1513;47.650;10.720;2023-07-31T04:54:02;7.87;;;3.33;;
3006;SDS011;1513;47.650;10.720;2023-07-31T04:56:28;4.20;;;3.50;;
3006;SDS011;1513;47.650;10.720;2023-07-31T04:58:54;5.73;;;4.00;;
3006;SDS011;1513;47.650;10.720;2023-07-31T05:01:21;3.33;;;2.60;;
3006;SDS011;1513;47.650;10.720;2023-07-31T05:03:47;4.40;;;2.97;;
3006;SDS011;1513;47.650;10.720;2023-07-31T05:06:13;3.37;;;2.60;;
3006;SDS011;1513;47.650;10.720;2023-07-31T05:08:40;2.87;;;2.53;;
3006;SDS011;1513;47.650;10.720;2023-07-31T05:11:06;5.40;;;3.10;;
3006;SDS011;1513;47.650;10.720;2023-07-31T05:13:33;3.03;;;2.73;;
3006;SDS011;1513;47.650;10.720;2023-07-31T05:15:59;2.63;;;2.37;;
3006;SDS011;1513;47.650;10.720;2023-07-31T05:18:25;4.80;;;2.60;;
3006;SDS011;1513;47.650;10.720;2023-07-31T05:20:51;4.73;;;3.00;;
3006;SDS011;1513;47.650;10.720;2023-07-31T05:23:18;5.20;;;2.77;;
3006;SDS011;1513;47.650;10.720;2023-07-31T05:25:44;3.40;;;2.70;;
3006;SDS011;1513;47.650;10.720;2023-07-31T05:28:11;3.23;;;2.73;;
3006;SDS011;1513;47.650;10.720;2023-07-31T05:30:37;2.80;;;2.60;;
3006;SDS011;1513;47.650;10.720;2023-07-31T05:33:04;2.70;;;2.50;;
3006;SDS011;1513;47.650;10.720;2023-07-31T05:35:30;3.33;;;2.60;;
3006;SDS011;1513;47.650;10.720;2023-07-31T05:37:56;3.67;;;2.97;;
3006;SDS011;1513;47.650;10.720;2023-07-31T05:40:23;3.40;;;2.70;;
3006;SDS011;1513;47.650;10.720;2023-07-31T05:42:49;3.90;;;2.60;;
3006;SDS011;1513;47.650;10.720;2023-07-31T05:45:15;2.70;;;2.33;;
3006;SDS011;1513;47.650;10.720;2023-07-31T05:47:42;2.90;;;2.70;;
3006;SDS011;1513;47.650;10.720;2023-07-31T05:50:08;2.83;;;2.23;;
3006;SDS011;1513;47.650;10.720;2023-07-31T05:52:34;7.93;;;2.70;;
3006;SDS011;1513;47.650;10.720;2023-07-31T05:55:01;3.00;;;2.70;;
3006;SDS011;1513;47.650;10.720;2023-07-31T05:57:28;3.93;;;2.33;;
3006;SDS011;1513;47.650;10.720;2023-07-31T05:59:54;4.27;;;2.50;;
3006;SDS011;1513;47.650;10.720;2023-07-31T06:02:20;3.00;;;2.80;;
3006;SDS011;1513;47.650;10.720;2023-07-31T06:04:47;2.70;;;2.43;;
3006;SDS011;1513;47.650;10.720;2023-07-31T06:07:13;2.60;;;2.40;;
3006;SDS011;1513;47.650;10.720;2023-07-31T06:09:39;3.20;;;2.47;;
3006;SDS011;1513;47.650;10.720;2023-07-31T06:12:05;2.70;;;2.50;;
3006;SDS011;1513;47.650;10.720;2023-07-31T06:14:32;3.80;;;2.60;;
3006;SDS011;1513;47.650;10.720;2023-07-31T06:16:58;3.00;;;2.10;;
3006;SDS011;1513;47.650;10.720;2023-07-31T06:19:24;7.07;;;2.67;;
3006;SDS011;1513;47.650;10.720;2023-07-31T06:21:51;4.37;;;2.10;;
3006;SDS011;1513;47.650;10.720;2023-07-31T06:24:17;8.77;;;2.37;;
3006;SDS011;1513;47.650;10.720;2023-07-31T06:26:45;4.97;;;2.60;;
3006;SDS011;1513;47.650;10.720;2023-07-31T06:29:12;9.00;;;2.90;;
3006;SDS011;1513;47.650;10.720;2023-07-31T06:31:38;3.27;;;2.47;;
3006;SDS011;1513;47.650;10.720;2023-07-31T06:34:05;2.87;;;2.03;;
3006;SDS011;1513;47.650;10.720;2023-07-31T06:36:32;4.53;;;1.97;;
3006;SDS011;1513;47.650;10.720;2023-07-31T06:38:58;2.60;;;2.40;;
3006;SDS011;1513;47.650;10.720;2023-07-31T06:41:24;2.93;;;2.67;;
3006;SDS011;1513;47.650;10.720;2023-07-31T06:43:50;3.37;;;2.40;;
3006;SDS011;1513;47.650;10.720;2023-07-31T06:46:17;2.60;;;2.37;;
3006;SDS011;1513;47.650;10.720;2023-07-31T06:48:43;3.07;;;2.30;;
3006;SDS011;1513;47.650;10.720;2023-07-31T06:51:09;6.90;;;2.90;;
3006;SDS011;1513;47.650;10.720;2023-07-31T06:53:36;4.50;;;2.53;;
3006;SDS011;1513;47.650;10.720;2023-07-31T06:56:02;3.33;;;2.47;;
3006;SDS011;1513;47.650;10.720;2023-07-31T06:58:28;5.93;;;2.73;;
3006;SDS011;1513;47.650;10.720;2023-07-31T07:00:55;3.33;;;2.80;;
3006;SDS011;1513;47.650;10.720;2023-07-31T07:03:21;3.80;;;2.50;;
3006;SDS011;1513;47.650;10.720;2023-07-31T07:05:47;3.20;;;2.90;;
3006;SDS011;1513;47.650;10.720;2023-07-31T07:08:14;3.70;;;2.50;;
3006;SDS011;1513;47.650;10.720;2023-07-31T07:10:40;3.73;;;2.50;;
3006;SDS011;1513;47.650;10.720;2023-07-31T07:13:06;2.70;;;2.50;;
3006;SDS011;1513;47.650;10.720;2023-07-31T07:15:33;2.90;;;2.70;;
3006;SDS011;1513;47.650;10.720;2023-07-31T07:17:59;4.60;;;2.80;;
3006;SDS011;1513;47.650;10.720;2023-07-31T07:20:25;3.20;;;2.43;;
3006;SDS011;1513;47.650;10.720;2023-07-31T07:22:52;4.53;;;2.73;;
3006;SDS011;1513;47.650;10.720;2023-07-31T07:25:18;2.60;;;2.20;;
3006;SDS011;1513;47.650;10.720;2023-07-31T07:27:44;5.37;;;2.60;;
3006;SDS011;1513;47.650;10.720;2023-07-31T07:30:10;3.63;;;2.63;;
3006;SDS011;1513;47.650;10.720;2023-07-31T07:32:37;3.03;;;2.27;;
3006;SDS011;1513;47.650;10.720;2023-07-31T07:35:03;3.97;;;2.40;;
3006;SDS011;1513;47.650;10.720;2023-07-31T07:37:30;2.90;;;2.23;;
3006;SDS011;1513;47.650;10.720;2023-07-31T07:39:56;4.00;;;2.90;;
3006;SDS011;1513;47.650;10.720;2023-07-31T07:42:23;3.00;;;2.10;;
3006;SDS011;1513;47.650;10.720;2023-07-31T07:44:49;2.70;;;2.40;;
3006;SDS011;1513;47.650;10.720;2023-07-31T07:47:15;2.90;;;2.60;;
3006;SDS011;1513;47.650;10.720;2023-07-31T07:49:42;23.73;;;11.83;;
3006;SDS011;1513;47.650;10.720;2023-07-31T07:52:08;25.03;;;13.10;;
3006;SDS011;1513;47.650;10.720;2023-07-31T07:54:34;18.83;;;11.37;;
3006;SDS011;1513;47.650;10.720;2023-07-31T07:57:00;32.43;;;18.60;;
3006;SDS011;1513;47.650;10.720;2023-07-31T07:59:27;22.50;;;15.07;;
3006;SDS011;1513;47.650;10.720;2023-07-31T08:01:53;12.40;;;8.50;;
3006;SDS011;1513;47.650;10.720;2023-07-31T08:04:19;13.73;;;7.97;;
3006;SDS011;1513;47.650;10.720;2023-07-31T08:06:46;14.17;;;8.87;;
3006;SDS011;1513;47.650;10.720;2023-07-31T08:09:12;7.40;;;4.97;;
3006;SDS011;1513;47.650;10.720;2023-07-31T08:11:38;10.00;;;8.20;;
3006;SDS011;1513;47.650;10.720;2023-07-31T08:14:05;6.10;;;4.57;;
3006;SDS011;1513;47.650;10.720;2023-07-31T08:16:31;7.90;;;4.77;;
3006;SDS011;1513;47.650;10.720;2023-07-31T08:18:57;5.77;;;4.53;;
3006;SDS011;1513;47.650;10.720;2023-07-31T08:21:24;5.03;;;3.60;;
3006;SDS011;1513;47.650;10.720;2023-07-31T08:23:50;5.83;;;2.53;;
3006;SDS011;1513;47.650;10.720;2023-07-31T08:26:16;2.70;;;2.13;;
3006;SDS011;1513;47.650;10.720;2023-07-31T08:28:43;2.53;;;2.33;;
3006;SDS011;1513;47.650;10.720;2023-07-31T08:31:10;3.50;;;2.57;;
3006;SDS011;1513;47.650;10.720;2023-07-31T08:33:37;4.23;;;2.87;;
3006;SDS011;1513;47.650;10.720;2023-07-31T08:36:04;3.07;;;2.77;;
3006;SDS011;1513;47.650;10.720;2023-07-31T08:38:30;2.90;;;2.60;;
3006;SDS011;1513;47.650;10.720;2023-07-31T08:40:57;4.40;;;2.83;;
3006;SDS011;1513;47.650;10.720;2023-07-31T08:43:27;2.93;;;2.67;;
3006;SDS011;1513;47.650;10.720;2023-07-31T08:45:53;5.10;;;2.40;;
3006;SDS011;1513;47.650;10.720;2023-07-31T08:48:21;4.63;;;2.70;;
3006;SDS011;1513;47.650;10.720;2023-07-31T08:50:49;3.20;;;2.83;;
3006;SDS011;1513;47.650;10.720;2023-07-31T08:53:17;4.67;;;2.50;;
3006;SDS011;1513;47.650;10.720;2023-07-31T08:55:44;3.03;;;2.23;;
3006;SDS011;1513;47.650;10.720;2023-07-31T08:58:11;7.33;;;2.70;;
3006;SDS011;1513;47.650;10.720;2023-07-31T09:00:39;4.20;;;2.50;;
3006;SDS011;1513;47.650;10.720;2023-07-31T09:03:12;2.50;;;2.30;;
3006;SDS011;1513;47.650;10.720;2023-07-31T09:05:42;4.27;;;2.40;;
3006;SDS011;1513;47.650;10.720;2023-07-31T09:08:10;6.73;;;2.93;;
3006;SDS011;1513;47.650;10.720;2023-07-31T09:10:44;4.07;;;2.50;;
3006;SDS011;1513;47.650;10.720;2023-07-31T09:13:15;3.47;;;2.00;;
3006;SDS011;1513;47.650;10.720;2023-07-31T09:15:42;3.20;;;2.50;;
3006;SDS011;1513;47.650;10.720;2023-07-31T09:18:10;4.60;;;2.60;;
3006;SDS011;1513;47.650;10.720;2023-07-31T09:20:37;4.07;;;2.87;;
3006;SDS011;1513;47.650;10.720;2023-07-31T09:23:10;2.30;;;2.10;;
3006;SDS011;1513;47.650;10.720;2023-07-31T09:25:39;5.13;;;2.27;;
3006;SDS011;1513;47.650;10.720;2023-07-31T09:28:07;2.50;;;2.30;;
3006;SDS011;1513;47.650;10.720;2023-07-31T09:30:48;3.50;;;2.10;;
3006;SDS011;1513;47.650;10.720;2023-07-31T09:33:16;6.17;;;2.47;;
3006;SDS011;1513;47.650;10.720;2023-07-31T09:35:43;3.47;;;2.43;;
3006;SDS011;1513;47.650;10.720;2023-07-31T09:38:10;7.03;;;2.60;;
3006;SDS011;1513;47.650;10.720;2023-07-31T09:40:44;3.53;;;2.37;;
3006;SDS011;1513;47.650;10.720;2023-07-31T09:43:12;5.20;;;2.67;;
3006;SDS011;1513;47.650;10.720;2023-07-31T09:45:43;2.70;;;2.50;;
3006;SDS011;1513;47.650;10.720;2023-07-31T09:48:19;3.73;;;2.43;;
3006;SDS011;1513;47.650;10.720;2023-07-31T09:50:46;3.03;;;2.70;;
3006;SDS011;1513;47.650;10.720;2023-07-31T09:53:13;6.67;;;2.30;;
3006;SDS011;1513;47.650;10.720;2023-07-31T09:55:41;3.53;;;2.50;;
3006;SDS011;1513;47.650;10.720;2023-07-31T09:58:09;3.73;;;2.57;;
3006;SDS011;1513;47.650;10.720;2023-07-31T10:00:36;3.57;;;2.80;;
3006;SDS011;1513;47.650;10.720;2023-07-31T10:03:06;6.27;;;2.60;;
3006;SDS011;1513;47.650;10.720;2023-07-31T10:05:34;4.27;;;2.17;;
3006;SDS011;1513;47.650;10.720;2023-07-31T10:08:04;7.00;;;2.90;;
3006;SDS011;1513;47.650;10.720;2023-07-31T10:10:32;5.27;;;2.63;;
3006;SDS011;1513;47.650;10.720;2023-07-31T10:13:01;4.90;;;2.50;;
3006;SDS011;1513;47.650;10.720;2023-07-31T10:15:28;3.97;;;2.73;;
3006;SDS011;1513;47.650;10.720;2023-07-31T10:17:55;4.07;;;2.37;;
3006;SDS011;1513;47.650;10.720;2023-07-31T10:20:21;4.30;;;2.50;;
3006;SDS011;1513;47.650;10.720;2023-07-31T10:22:48;5.30;;;2.93;;
3006;SDS011;1513;47.650;10.720;2023-07-31T10:25:15;4.13;;;2.93;;
3006;SDS011;1513;47.650;10.720;2023-07-31T10:27:42;4.57;;;2.57;;
3006;SDS011;1513;47.650;10.720;2023-07-31T10:30:11;3.37;;;2.60;;
3006;SDS011;1513;47.650;10.720;2023-07-31T10:32:40;3.20;;;2.40;;
3006;SDS011;1513;47.650;10.720;2023-07-31T10:35:08;3.90;;;2.80;;
3006;SDS011;1513;47.650;10.720;2023-07-31T10:37:39;7.57;;;3.27;;
3006;SDS011;1513;47.650;10.720;2023-07-31T10:40:23;5.90;;;3.27;;
3006;SDS011;1513;47.650;10.720;2023-07-31T10:42:54;5.13;;;2.70;;
3006;SDS011;1513;47.650;10.720;2023-07-31T10:45:38;3.40;;;2.80;;
3006;SDS011;1513;47.650;10.720;2023-07-31T10:48:14;5.03;;;2.60;;
3006;SDS011;1513;47.650;10.720;2023-07-31T10:50:50;4.23;;;2.60;;
3006;SDS011;1513;47.650;10.720;2023-07-31T10:53:24;6.30;;;2.47;;
3006;SDS011;1513;47.650;10.720;2023-07-31T10:55:56;3.47;;;3.07;;
3006;SDS011;1513;47.650;10.720;2023-07-31T10:58:24;4.80;;;2.53;;
3006;SDS011;1513;47.650;10.720;2023-07-31T11:00:56;3.27;;;2.57;;
3006;SDS011;1513;47.650;10.720;2023-07-31T11:03:29;6.70;;;3.20;;
3006;SDS011;1513;47.650;10.720;2023-07-31T11:06:10;5.83;;;2.40;;
3006;SDS011;1513;47.650;10.720;2023-07-31T11:08:41;4.63;;;2.83;;
3006;SDS011;1513;47.650;10.720;2023-07-31T11:11:09;5.47;;;2.70;;
3006;SDS011;1513;47.650;10.720;2023-07-31T11:16:08;3.10;;;2.60;;
3006;SDS011;1513;47.650;10.720;2023-07-31T11:18:35;3.03;;;2.50;;
3006;SDS011;1513;47.650;10.720;2023-07-31T11:21:03;3.57;;;3.10;;
3006;SDS011;1513;47.650;10.720;2023-07-31T11:23:30;5.13;;;2.90;;
3006;SDS011;1513;47.650;10.720;2023-07-31T11:25:59;7.30;;;3.00;;
3006;SDS011;1513;47.650;10.720;2023-07-31T11:28:25;3.30;;;2.57;;
3006;SDS011;1513;47.650;10.720;2023-07-31T11:30:56;3.27;;;2.87;;
3006;SDS011;1513;47.650;10.720;2023-07-31T11:33:22;7.73;;;2.70;;
3006;SDS011;1513;47.650;10.720;2023-07-31T11:35:48;2.53;;;2.30;;
3006;SDS011;1513;47.650;10.720;2023-07-31T11:38:22;4.43;;;2.90;;
3006;SDS011;1513;47.650;10.720;2023-07-31T11:40:59;4.13;;;2.60;;
3006;SDS011;1513;47.650;10.720;2023-07-31T11:43:30;3.87;;;2.63;;
3006;SDS011;1513;47.650;10.720;2023-07-31T11:45:58;4.07;;;2.67;;
3006;SDS011;1513;47.650;10.720;2023-07-31T11:48:29;4.53;;;2.70;;
3006;SDS011;1513;47.650;10.720;2023-07-31T11:50:59;2.80;;;2.60;;
3006;SDS011;1513;47.650;10.720;2023-07-31T11:53:28;3.53;;;2.73;;
3006;SDS011;1513;47.650;10.720;2023-07-31T11:56:14;4.20;;;3.10;;
3006;SDS011;1513;47.650;10.720;2023-07-31T11:58:43;3.30;;;2.93;;
3006;SDS011;1513;47.650;10.720;2023-07-31T12:01:11;3.57;;;2.87;;
3006;SDS011;1513;47.650;10.720;2023-07-31T12:03:39;4.30;;;2.97;;
3006;SDS011;1513;47.650;10.720;2023-07-31T12:06:08;2.30;;;2.20;;
3006;SDS011;1513;47.650;10.720;2023-07-31T12:08:34;3.40;;;2.90;;
3006;SDS011;1513;47.650;10.720;2023-07-31T12:11:03;6.33;;;3.17;;
3006;SDS011;1513;47.650;10.720;2023-07-31T12:13:30;2.80;;;2.50;;
3006;SDS011;1513;47.650;10.720;2023-07-31T12:15:58;4.50;;;3.20;;
3006;SDS011;1513;47.650;10.720;2023-07-31T12:18:27;4.73;;;3.00;;
3006;SDS011;1513;47.650;10.720;2023-07-31T12:20:55;3.20;;;2.90;;
3006;SDS011;1513;47.650;10.720;2023-07-31T12:23:25;2.93;;;2.70;;
3006;SDS011;1513;47.650;10.720;2023-07-31T12:26:03;5.00;;;3.23;;
3006;SDS011;1513;47.650;10.720;2023-07-31T12:28:30;3.37;;;2.97;;
3006;SDS011;1513;47.650;10.720;2023-07-31T12:31:00;5.77;;;2.77;;
3006;SDS011;1513;47.650;10.720;2023-07-31T12:33:33;3.37;;;2.67;;
3006;SDS011;1513;47.650;10.720;2023-07-31T12:36:01;8.30;;;3.23;;
3006;SDS011;1513;47.650;10.720;2023-07-31T12:38:29;3.23;;;2.93;;
3006;SDS011;1513;47.650;10.720;2023-07-31T12:40:55;4.07;;;3.00;;
3006;SDS011;1513;47.650;10.720;2023-07-31T12:43:21;6.73;;;2.60;;
3006;SDS011;1513;47.650;10.720;2023-07-31T12:45:48;2.63;;;2.43;;
3006;SDS011;1513;47.650;10.720;2023-07-31T12:48:14;3.40;;;2.80;;
3006;SDS011;1513;47.650;10.720;2023-07-31T12:50:41;4.87;;;2.80;;
3006;SDS011;1513;47.650;10.720;2023-07-31T12:53:07;3.50;;;3.03;;
3006;SDS011;1513;47.650;10.720;2023-07-31T12:55:33;3.67;;;2.73;;
3006;SDS011;1513;47.650;10.720;2023-07-31T12:58:02;2.60;;;2.40;;
3006;SDS011;1513;47.650;10.720;2023-07-31T13:00:28;2.40;;;2.20;;
3006;SDS011;1513;47.650;10.720;2023-07-31T13:02:55;3.30;;;2.20;;
3006;SDS011;1513;47.650;10.720;2023-07-31T13:05:21;3.60;;;2.37;;
3006;SDS011;1513;47.650;10.720;2023-07-31T13:07:47;2.40;;;2.20;;
3006;SDS011;1513;47.650;10.720;2023-07-31T13:10:14;3.47;;;2.27;;
3006;SDS011;1513;47.650;10.720;2023-07-31T13:12:40;4.03;;;2.80;;
3006;SDS011;1513;47.650;10.720;2023-07-31T13:15:07;3.00;;;2.37;;
3006;SDS011;1513;47.650;10.720;2023-07-31T13:17:33;2.47;;;2.23;;
3006;SDS011;1513;47.650;10.720;2023-07-31T13:20:00;2.60;;;2.40;;
3006;SDS011;1513;47.650;10.720;2023-07-31T13:22:27;3.20;;;2.23;;
3006;SDS011;1513;47.650;10.720;2023-07-31T13:24:53;3.87;;;2.33;;
3006;SDS011;1513;47.650;10.720;2023-07-31T13:27:19;2.63;;;2.23;;
3006;SDS011;1513;47.650;10.720;2023-07-31T13:29:49;2.30;;;2.10;;
3006;SDS011;1513;47.650;10.720;2023-07-31T13:32:16;2.17;;;1.97;;
3006;SDS011;1513;47.650;10.720;2023-07-31T13:34:43;2.70;;;2.27;;
3006;SDS011;1513;47.650;10.720;2023-07-31T13:37:10;2.97;;;2.50;;
3006;SDS011;1513;47.650;10.720;2023-07-31T13:39:36;2.50;;;2.27;;
3006;SDS011;1513;47.650;10.720;2023-07-31T13:42:03;2.57;;;2.23;;
3006;SDS011;1513;47.650;10.720;2023-07-31T13:44:33;3.07;;;2.53;;
3006;SDS011;1513;47.650;10.720;2023-07-31T13:47:00;3.27;;;2.77;;
3006;SDS011;1513;47.650;10.720;2023-07-31T13:49:27;4.43;;;2.30;;
3006;SDS011;1513;47.650;10.720;2023-07-31T13:51:54;5.10;;;2.73;;
3006;SDS011;1513;47.650;10.720;2023-07-31T13:54:20;3.60;;;2.17;;
3006;SDS011;1513;47.650;10.720;2023-07-31T13:56:47;2.43;;;2.23;;
3006;SDS011;1513;47.650;10.720;2023-07-31T13:59:13;3.30;;;2.40;;
3006;SDS011;1513;47.650;10.720;2023-07-31T14:01:43;2.50;;;2.30;;
3006;SDS011;1513;47.650;10.720;2023-07-31T14:04:10;2.50;;;2.30;;
3006;SDS011;1513;47.650;10.720;2023-07-31T14:06:36;3.43;;;2.20;;
3006;SDS011;1513;47.650;10.720;2023-07-31T14:09:03;3.93;;;2.27;;
3006;SDS011;1513;47.650;10.720;2023-07-31T14:11:32;5.33;;;2.77;;
3006;SDS011;1513;47.650;10.720;2023-07-31T14:13:59;4.97;;;2.60;;
3006;SDS011;1513;47.650;10.720;2023-07-31T14:16:27;4.30;;;2.80;;
3006;SDS011;1513;47.650;10.720;2023-07-31T14:18:53;3.27;;;2.53;;
3006;SDS011;1513;47.650;10.720;2023-07-31T14:21:20;2.40;;;2.20;;
3006;SDS011;1513;47.650;10.720;2023-07-31T14:23:46;2.63;;;2.43;;
3006;SDS011;1513;47.650;10.720;2023-07-31T14:26:12;5.90;;;2.23;;
3006;SDS011;1513;47.650;10.720;2023-07-31T14:28:39;4.33;;;2.73;;
3006;SDS011;1513;47.650;10.720;2023-07-31T14:31:05;2.50;;;2.30;;
3006;SDS011;1513;47.650;10.720;2023-07-31T14:33:31;2.70;;;2.40;;
3006;SDS011;1513;47.650;10.720;2023-07-31T14:35:58;2.90;;;2.50;;
3006;SDS011;1513;47.650;10.720;2023-07-31T14:38:24;3.90;;;2.30;;
3006;SDS011;1513;47.650;10.720;2023-07-31T14:40:51;2.50;;;2.30;;
3006;SDS011;1513;47.650;10.720;2023-07-31T14:43:17;4.57;;;2.10;;
3006;SDS011;1513;47.650;10.720;2023-07-31T14:45:43;2.93;;;2.63;;
3006;SDS011;1513;47.650;10.720;2023-07-31T14:48:11;2.80;;;2.43;;
3006;SDS011;1513;47.650;10.720;2023-07-31T14:50:38;2.87;;;2.40;;
3006;SDS011;1513;47.650;10.720;2023-07-31T14:53:04;3.43;;;2.30;;
3006;SDS011;1513;47.650;10.720;2023-07-31T14:55:31;4.20;;;2.30;;
3006;SDS011;1513;47.650;10.720;2023-07-31T14:57:57;2.30;;;2.10;;
3006;SDS011;1513;47.650;10.720;2023-07-31T15:00:23;2.87;;;2.17;;
3006;SDS011;1513;47.650;10.720;2023-07-31T15:02:50;7.63;;;2.60;;
3006;SDS011;1513;47.650;10.720;2023-07-31T15:05:16;2.50;;;2.10;;
3006;SDS011;1513;47.650;10.720;2023-07-31T15:07:42;2.40;;;2.10;;
3006;SDS011;1513;47.650;10.720;2023-07-31T15:10:09;8.17;;;2.57;;